createdAt,value
2018-02-07T00:01:42.820Z,60.52
2018-02-07T00:04:09.052Z,61.71
2018-02-07T00:06:34.989Z,62.50
2018-02-07T00:09:00.910Z,61.69
2018-02-07T00:11:26.830Z,61.17
2018-02-07T00:13:52.802Z,61.42
2018-02-07T00:16:18.726Z,60.90
2018-02-07T00:18:44.651Z,61.58
2018-02-07T00:21:10.592Z,60.94
2018-02-07T00:23:36.527Z,61.68
2018-02-07T00:26:02.454Z,60.96
2018-02-07T00:28:28.373Z,60.62
2018-02-07T00:30:54.345Z,61.76
2018-02-07T00:33:20.313Z,62.05
2018-02-07T00:35:46.251Z,61.08
2018-02-07T00:38:12.205Z,60.22
2018-02-07T00:40:38.147Z,60.31
2018-02-07T00:43:04.114Z,59.86
2018-02-07T00:45:30.042Z,60.00
2018-02-07T00:47:55.989Z,60.31
2018-02-07T00:50:21.908Z,59.83
2018-02-07T00:52:47.841Z,59.69
2018-02-07T00:55:13.802Z,59.61
2018-02-07T00:57:39.735Z,59.81
2018-02-07T01:00:05.670Z,60.91
2018-02-07T01:02:31.612Z,61.33
2018-02-07T01:04:57.554Z,60.68
2018-02-07T01:07:23.514Z,61.20
2018-02-07T01:09:49.442Z,60.18
2018-02-07T01:12:15.377Z,60.34
2018-02-07T01:14:41.314Z,60.66
2018-02-07T01:17:07.254Z,61.06
2018-02-07T01:19:33.190Z,59.92
2018-02-07T01:21:59.141Z,60.14
2018-02-07T01:24:25.092Z,59.86
2018-02-07T01:26:51.030Z,60.10
2018-02-07T01:29:16.986Z,59.01
2018-02-07T01:31:42.938Z,57.93
2018-02-07T01:34:08.874Z,57.49
2018-02-07T01:36:34.813Z,58.69
2018-02-07T01:39:00.772Z,58.82
2018-02-07T01:41:26.723Z,58.60
2018-02-07T01:43:52.669Z,58.00
2018-02-07T01:46:18.606Z,57.90
2018-02-07T01:48:44.526Z,57.18
2018-02-07T01:51:10.466Z,57.42
2018-02-07T01:53:36.554Z,57.70
2018-02-07T01:56:02.547Z,58.25
2018-02-07T01:58:28.518Z,59.29
2018-02-07T02:00:54.468Z,59.22
2018-02-07T02:03:20.389Z,59.39
2018-02-07T02:05:46.344Z,59.23
2018-02-07T02:08:12.295Z,59.09
2018-02-07T02:10:38.253Z,59.21
2018-02-07T02:13:04.525Z,59.79
2018-02-07T02:15:30.458Z,61.15
2018-02-07T02:17:56.394Z,61.32
2018-02-07T02:20:22.351Z,61.02
2018-02-07T02:22:48.296Z,61.23
2018-02-07T02:25:14.262Z,61.19
2018-02-07T02:27:40.216Z,60.94
2018-02-07T02:30:06.162Z,61.55
2018-02-07T02:32:32.094Z,61.10
2018-02-07T02:34:58.032Z,61.45
2018-02-07T02:37:23.971Z,61.64
2018-02-07T02:39:49.910Z,62.75
2018-02-07T02:42:15.866Z,62.15
2018-02-07T02:44:41.832Z,63.30
2018-02-07T02:47:07.787Z,63.04
2018-02-07T02:49:33.728Z,61.81
2018-02-07T02:51:59.729Z,60.70
2018-02-07T02:54:25.751Z,60.42
2018-02-07T02:56:51.700Z,61.71
2018-02-07T02:59:17.638Z,61.87
2018-02-07T03:01:43.590Z,61.84
2018-02-07T03:04:09.574Z,62.39
2018-02-07T03:06:35.528Z,61.08
2018-02-07T03:09:01.467Z,61.12
2018-02-07T03:11:27.404Z,60.13
2018-02-07T03:13:53.353Z,60.60
2018-02-07T03:16:19.308Z,60.38
2018-02-07T03:18:45.323Z,60.30
2018-02-07T03:21:11.274Z,60.07
2018-02-07T03:23:37.242Z,60.70
2018-02-07T03:26:03.201Z,59.96
2018-02-07T03:28:29.188Z,59.56
2018-02-07T03:30:55.101Z,59.34
2018-02-07T03:33:21.033Z,59.37
2018-02-07T03:35:46.988Z,59.98
2018-02-07T03:38:12.923Z,61.95
2018-02-07T03:40:38.853Z,61.45
2018-02-07T03:43:04.785Z,61.45
2018-02-07T03:45:30.727Z,61.82
2018-02-07T03:47:56.658Z,62.37
2018-02-07T03:50:22.607Z,63.01
2018-02-07T03:52:48.543Z,62.57
2018-02-07T03:55:14.495Z,61.35
2018-02-07T03:57:40.428Z,60.64
2018-02-07T04:00:06.373Z,59.93
2018-02-07T04:02:32.319Z,59.80
2018-02-07T04:04:58.265Z,60.66
2018-02-07T04:07:24.207Z,60.79
2018-02-07T04:09:50.144Z,59.87
2018-02-07T04:12:16.051Z,61.32
2018-02-07T04:14:42.017Z,61.84
2018-02-07T04:17:08.003Z,61.44
2018-02-07T04:19:33.947Z,61.01
2018-02-07T04:21:59.876Z,61.40
2018-02-07T04:24:25.793Z,62.30
2018-02-07T04:26:51.741Z,61.20
2018-02-07T04:29:17.677Z,61.44
2018-02-07T04:31:43.661Z,60.97
2018-02-07T04:34:09.611Z,60.63
2018-02-07T04:36:35.561Z,60.12
2018-02-07T04:39:01.539Z,61.51
2018-02-07T04:41:27.587Z,62.17
2018-02-07T04:43:53.535Z,61.72
2018-02-07T04:46:19.463Z,60.86
2018-02-07T04:48:45.443Z,61.04
2018-02-07T04:51:11.393Z,61.29
2018-02-07T04:53:37.349Z,59.78
2018-02-07T04:56:03.285Z,59.70
2018-02-07T04:58:29.209Z,61.48
2018-02-07T05:00:55.157Z,60.84
2018-02-07T05:03:21.093Z,60.50
2018-02-07T05:05:47.055Z,60.28
2018-02-07T05:08:12.997Z,60.01
2018-02-07T05:10:38.934Z,59.47
2018-02-07T05:13:04.895Z,59.15
2018-02-07T05:15:30.815Z,58.56
2018-02-07T05:17:56.751Z,58.21
2018-02-07T05:20:22.696Z,58.92
2018-02-07T05:22:48.648Z,59.18
2018-02-07T05:25:14.583Z,59.40
2018-02-07T05:27:40.505Z,60.40
2018-02-07T05:30:06.449Z,60.65
2018-02-07T05:32:32.389Z,59.95
2018-02-07T05:34:58.319Z,59.78
2018-02-07T05:37:24.260Z,58.87
2018-02-07T05:39:50.258Z,60.35
2018-02-07T05:42:16.199Z,59.91
2018-02-07T05:44:42.139Z,60.77
2018-02-07T05:47:08.070Z,59.73
2018-02-07T05:49:34.017Z,59.61
2018-02-07T05:51:59.945Z,59.94
2018-02-07T05:54:25.867Z,59.52
2018-02-07T05:56:51.821Z,61.36
2018-02-07T05:59:17.759Z,61.25
2018-02-07T06:01:43.707Z,61.14
2018-02-07T06:04:09.646Z,60.50
2018-02-07T06:06:35.610Z,59.99
2018-02-07T06:09:01.549Z,59.85
2018-02-07T06:11:27.526Z,60.93
2018-02-07T06:13:53.485Z,60.48
2018-02-07T06:16:19.439Z,60.89
2018-02-07T06:18:45.388Z,62.27
2018-02-07T06:21:11.337Z,62.40
2018-02-07T06:23:37.283Z,62.46
2018-02-07T06:26:03.221Z,61.81
2018-02-07T06:28:29.167Z,61.17
2018-02-07T06:30:55.089Z,59.98
2018-02-07T06:33:21.037Z,60.07
2018-02-07T06:35:46.965Z,60.85
2018-02-07T06:38:12.949Z,61.34
2018-02-07T06:40:38.927Z,61.69
2018-02-07T06:43:04.875Z,60.68
2018-02-07T06:45:30.819Z,60.24
2018-02-07T06:47:56.772Z,60.38
2018-02-07T06:50:22.701Z,62.42
2018-02-07T06:52:48.659Z,61.72
2018-02-07T06:55:14.599Z,61.76
2018-02-07T06:57:40.545Z,61.62
2018-02-07T07:00:06.478Z,61.25
2018-02-07T07:02:32.427Z,62.20
2018-02-07T07:04:58.371Z,61.44
2018-02-07T07:07:24.323Z,60.54
2018-02-07T07:09:50.257Z,60.44
2018-02-07T07:12:16.194Z,60.43
2018-02-07T07:14:42.136Z,61.38
2018-02-07T07:17:08.135Z,60.60
2018-02-07T07:19:34.080Z,60.50
2018-02-07T07:22:00.030Z,60.56
2018-02-07T07:24:25.973Z,59.79
2018-02-07T07:26:51.913Z,60.56
2018-02-07T07:29:17.848Z,60.21
2018-02-07T07:31:43.865Z,59.95
2018-02-07T07:34:09.797Z,61.03
2018-02-07T07:36:35.847Z,60.91
2018-02-07T07:39:01.778Z,58.83
2018-02-07T07:41:27.721Z,60.83
2018-02-07T07:43:53.676Z,59.02
2018-02-07T07:46:19.718Z,59.60
2018-02-07T07:48:45.656Z,57.94
2018-02-07T07:51:11.609Z,57.87
2018-02-07T07:53:37.534Z,56.90
2018-02-07T07:56:03.471Z,57.19
2018-02-07T07:58:29.442Z,56.50
2018-02-07T08:00:55.366Z,56.17
2018-02-07T08:03:21.319Z,57.38
2018-02-07T08:05:47.256Z,57.35
2018-02-07T08:08:13.198Z,56.31
2018-02-07T08:10:39.120Z,55.38
2018-02-07T08:13:05.074Z,54.85
2018-02-07T08:15:31.009Z,56.02
2018-02-07T08:17:56.951Z,57.15
2018-02-07T08:20:22.919Z,57.23
2018-02-07T08:22:48.873Z,55.98
2018-02-07T08:25:14.813Z,55.96
2018-02-07T08:27:40.750Z,55.96
2018-02-07T08:30:06.686Z,56.97
2018-02-07T08:32:32.602Z,56.05
2018-02-07T08:34:58.542Z,54.32
2018-02-07T08:37:24.490Z,54.40
2018-02-07T08:39:50.468Z,55.43
2018-02-07T08:42:16.394Z,54.93
2018-02-07T08:44:42.362Z,53.18
2018-02-07T08:47:08.294Z,53.82
2018-02-07T08:49:34.241Z,53.76
2018-02-07T08:52:00.182Z,52.22
2018-02-07T08:54:26.128Z,50.94
2018-02-07T08:56:52.062Z,51.03
2018-02-07T08:59:17.992Z,51.72
2018-02-07T09:01:43.926Z,51.97
2018-02-07T09:04:09.869Z,50.92
2018-02-07T09:06:35.796Z,50.60
2018-02-07T09:09:01.774Z,49.79
2018-02-07T09:11:27.708Z,50.63
2018-02-07T09:13:53.678Z,50.64
2018-02-07T09:16:19.598Z,50.36
2018-02-07T09:18:45.538Z,49.47
2018-02-07T09:21:11.471Z,50.61
2018-02-07T09:23:37.401Z,49.90
2018-02-07T09:26:03.344Z,49.46
2018-02-07T09:28:29.298Z,49.39
2018-02-07T09:30:55.270Z,50.00
2018-02-07T09:33:21.194Z,50.30
2018-02-07T09:35:47.118Z,50.13
2018-02-07T09:38:13.046Z,50.07
2018-02-07T09:40:38.974Z,50.67
2018-02-07T09:43:04.944Z,50.29
2018-02-07T09:45:30.879Z,50.18
2018-02-07T09:47:56.818Z,50.30
2018-02-07T09:50:22.754Z,50.37
2018-02-07T09:52:48.708Z,50.18
2018-02-07T09:55:14.646Z,51.40
2018-02-07T09:57:40.570Z,51.10
2018-02-07T10:00:06.511Z,51.58
2018-02-07T10:02:32.436Z,50.55
2018-02-07T10:04:58.368Z,50.46
2018-02-07T10:07:24.294Z,50.08
2018-02-07T10:09:50.226Z,49.86
2018-02-07T10:12:16.175Z,51.01
2018-02-07T10:14:42.099Z,50.45
2018-02-07T10:17:08.030Z,51.68
2018-02-07T10:19:33.958Z,52.92
2018-02-07T10:21:59.882Z,52.06
2018-02-07T10:24:25.806Z,51.22
2018-02-07T10:26:51.722Z,51.21
2018-02-07T10:29:17.670Z,51.50
2018-02-07T10:31:43.604Z,51.62
2018-02-07T10:34:09.526Z,50.92
2018-02-07T10:36:35.448Z,52.00
2018-02-07T10:39:01.379Z,51.64
2018-02-07T10:41:27.306Z,53.25
2018-02-07T10:43:53.270Z,52.10
2018-02-07T10:46:19.272Z,52.49
2018-02-07T10:48:45.209Z,53.07
2018-02-07T10:51:11.130Z,53.27
2018-02-07T10:53:37.074Z,52.24
2018-02-07T10:56:03.014Z,52.38
2018-02-07T10:58:28.955Z,53.28
2018-02-07T11:00:54.910Z,52.89
2018-02-07T11:03:20.858Z,52.45
2018-02-07T11:05:46.824Z,52.92
2018-02-07T11:08:12.770Z,53.23
2018-02-07T11:10:38.726Z,53.21
2018-02-07T11:13:04.674Z,52.79
2018-02-07T11:15:30.613Z,52.77
2018-02-07T11:17:56.554Z,52.86
2018-02-07T11:20:22.490Z,53.76
2018-02-07T11:22:48.458Z,54.23
2018-02-07T11:25:14.418Z,53.74
2018-02-07T11:27:40.350Z,53.22
2018-02-07T11:30:06.299Z,53.21
2018-02-07T11:32:32.238Z,53.02
2018-02-07T11:34:58.183Z,53.35
2018-02-07T11:37:25.127Z,53.01
2018-02-07T11:39:51.141Z,53.35
2018-02-07T11:42:17.105Z,53.27
2018-02-07T11:44:43.041Z,53.37
2018-02-07T11:47:09.027Z,52.98
2018-02-07T11:49:34.967Z,52.88
2018-02-07T11:52:00.913Z,53.07
2018-02-07T11:54:26.843Z,53.23
2018-02-07T11:56:52.773Z,52.80
2018-02-07T11:59:18.701Z,53.24
2018-02-07T12:01:44.645Z,53.47
2018-02-07T12:04:10.585Z,53.62
2018-02-07T12:06:36.541Z,53.29
2018-02-07T12:09:02.479Z,53.91
2018-02-07T12:11:28.413Z,53.83
2018-02-07T12:13:54.352Z,54.54
2018-02-07T12:16:20.299Z,54.23
2018-02-07T12:18:46.288Z,54.47
2018-02-07T12:21:12.213Z,54.64
2018-02-07T12:23:38.137Z,54.18
2018-02-07T12:26:04.077Z,54.12
2018-02-07T12:28:30.006Z,54.58
2018-02-07T12:30:55.929Z,54.47
2018-02-07T12:33:21.875Z,54.57
2018-02-07T12:35:47.799Z,55.17
2018-02-07T12:38:13.721Z,54.50
2018-02-07T12:40:39.655Z,54.58
2018-02-07T12:43:05.577Z,54.25
2018-02-07T12:45:31.497Z,54.63
2018-02-07T12:47:57.479Z,53.86
2018-02-07T12:50:23.406Z,53.25
2018-02-07T12:52:49.343Z,53.85
2018-02-07T12:55:15.287Z,54.35
2018-02-07T12:57:41.205Z,54.76
2018-02-07T13:00:07.135Z,54.46
2018-02-07T13:02:33.117Z,54.38
2018-02-07T13:04:59.001Z,54.42
2018-02-07T13:07:24.926Z,54.04
2018-02-07T13:09:50.893Z,53.55
2018-02-07T13:12:16.823Z,53.57
2018-02-07T13:14:42.753Z,53.27
2018-02-07T13:17:08.688Z,52.90
2018-02-07T13:19:34.615Z,53.26
2018-02-07T13:22:00.541Z,53.25
2018-02-07T13:24:26.479Z,53.03
2018-02-07T13:26:52.443Z,53.29
2018-02-07T13:29:18.361Z,53.60
2018-02-07T13:31:44.308Z,53.15
2018-02-07T13:34:10.239Z,53.34
2018-02-07T13:36:36.225Z,52.71
2018-02-07T13:39:02.163Z,53.97
2018-02-07T13:41:28.085Z,53.70
2018-02-07T13:43:54.013Z,53.40
2018-02-07T13:46:19.949Z,53.54
2018-02-07T13:48:45.891Z,53.73
2018-02-07T13:51:11.842Z,53.25
2018-02-07T13:53:37.773Z,54.05
2018-02-07T13:56:03.709Z,53.73
2018-02-07T13:58:29.651Z,53.17
2018-02-07T14:00:55.588Z,53.26
2018-02-07T14:03:21.528Z,53.72
2018-02-07T14:05:47.506Z,53.70
2018-02-07T14:08:13.447Z,52.66
2018-02-07T14:10:39.381Z,53.47
2018-02-07T14:13:05.305Z,53.22
2018-02-07T14:15:31.356Z,53.33
2018-02-07T14:17:57.289Z,53.08
2018-02-07T14:20:23.225Z,52.62
2018-02-07T14:22:49.204Z,52.83
2018-02-07T14:25:15.101Z,53.11
2018-02-07T14:27:41.038Z,53.57
2018-02-07T14:30:06.963Z,53.26
2018-02-07T14:32:32.908Z,52.85
2018-02-07T14:34:58.837Z,53.10
2018-02-07T14:37:24.762Z,52.88
2018-02-07T14:39:50.689Z,52.81
2018-02-07T14:42:16.614Z,52.40
2018-02-07T14:44:42.540Z,52.53
2018-02-07T14:47:08.534Z,53.12
2018-02-07T14:49:34.465Z,54.09
2018-02-07T14:52:00.392Z,54.85
2018-02-07T14:54:26.312Z,55.56
2018-02-07T14:56:52.246Z,54.97
2018-02-07T14:59:18.204Z,55.80
2018-02-07T15:01:44.130Z,56.43
2018-02-07T15:04:10.047Z,55.98
2018-02-07T15:06:35.978Z,55.70
2018-02-07T15:09:01.908Z,55.27
2018-02-07T15:11:27.829Z,55.53
2018-02-07T15:13:53.774Z,55.91
2018-02-07T15:16:19.970Z,55.90
2018-02-07T15:18:45.900Z,55.40
2018-02-07T15:21:11.828Z,55.89
2018-02-07T15:23:37.763Z,56.05
2018-02-07T15:26:03.714Z,56.48
2018-02-07T15:28:29.676Z,56.01
2018-02-07T15:30:55.644Z,56.46
2018-02-07T15:33:21.589Z,56.51
2018-02-07T15:35:47.518Z,55.94
2018-02-07T15:38:13.465Z,56.82
2018-02-07T15:40:39.445Z,57.10
2018-02-07T15:43:05.377Z,56.64
2018-02-07T15:45:31.393Z,57.01
2018-02-07T15:47:57.316Z,57.13
2018-02-07T15:50:23.246Z,56.69
2018-02-07T15:52:49.192Z,56.74
2018-02-07T15:55:15.122Z,56.35
2018-02-07T15:57:41.087Z,56.34
2018-02-07T16:00:07.007Z,57.60
2018-02-07T16:02:32.934Z,57.49
2018-02-07T16:04:58.910Z,56.85
2018-02-07T16:07:24.862Z,57.14
2018-02-07T16:09:50.800Z,57.83
2018-02-07T16:12:16.762Z,57.71
2018-02-07T16:14:42.758Z,58.02
2018-02-07T16:17:08.776Z,57.15
2018-02-07T16:19:34.720Z,56.70
2018-02-07T16:22:00.700Z,57.25
2018-02-07T16:24:26.631Z,57.16
2018-02-07T16:26:52.575Z,57.53
2018-02-07T16:29:18.495Z,58.02
2018-02-07T16:31:44.451Z,57.14
2018-02-07T16:34:10.418Z,56.28
2018-02-07T16:36:36.397Z,57.18
2018-02-07T16:39:02.339Z,57.11
2018-02-07T16:41:28.306Z,56.71
2018-02-07T16:43:54.314Z,55.46
2018-02-07T16:46:20.252Z,54.41
2018-02-07T16:48:46.204Z,54.38
2018-02-07T16:51:12.160Z,54.18
2018-02-07T16:53:38.122Z,54.29
2018-02-07T16:56:04.070Z,54.21
2018-02-07T16:58:30.016Z,53.95
2018-02-07T17:00:55.951Z,55.36
2018-02-07T17:03:21.890Z,54.47
2018-02-07T17:05:47.828Z,53.77
2018-02-07T17:08:13.778Z,54.27
2018-02-07T17:10:39.709Z,53.76
2018-02-07T17:13:05.678Z,54.68
2018-02-07T17:15:31.655Z,53.79
2018-02-07T17:17:57.591Z,53.92
2018-02-07T17:20:23.528Z,53.82
2018-02-07T17:22:49.461Z,54.13
2018-02-07T17:25:15.398Z,54.70
2018-02-07T17:27:41.333Z,54.89
2018-02-07T17:30:07.290Z,55.36
2018-02-07T17:32:33.240Z,54.68
2018-02-07T17:34:59.178Z,54.97
2018-02-07T17:37:25.099Z,54.73
2018-02-07T17:39:51.061Z,54.69
2018-02-07T17:42:17.019Z,54.33
2018-02-07T17:44:42.964Z,54.33
2018-02-07T17:47:08.901Z,54.82
2018-02-07T17:49:34.858Z,54.80
2018-02-07T17:52:00.796Z,55.01
2018-02-07T17:54:26.763Z,54.90
2018-02-07T17:56:52.688Z,54.65
2018-02-07T17:59:18.643Z,55.06
2018-02-07T18:01:44.588Z,55.06
2018-02-07T18:04:10.555Z,54.95
2018-02-07T18:06:36.490Z,54.50
2018-02-07T18:09:02.451Z,54.44
2018-02-07T18:11:28.378Z,54.43
2018-02-07T18:13:54.352Z,54.28
2018-02-07T18:16:20.417Z,54.10
2018-02-07T18:18:46.359Z,54.72
2018-02-07T18:21:12.322Z,54.66
2018-02-07T18:23:38.276Z,55.38
2018-02-07T18:26:04.215Z,54.92
2018-02-07T18:28:30.183Z,54.70
2018-02-07T18:30:56.119Z,54.47
2018-02-07T18:33:22.069Z,54.38
2018-02-07T18:35:47.999Z,55.42
2018-02-07T18:38:13.939Z,55.02
2018-02-07T18:40:39.875Z,54.67
2018-02-07T18:43:05.831Z,54.99
2018-02-07T18:45:31.777Z,54.91
2018-02-07T18:47:57.797Z,54.57
2018-02-07T18:50:23.742Z,54.32
2018-02-07T18:52:49.677Z,53.58
2018-02-07T18:55:15.606Z,53.89
2018-02-07T18:57:41.534Z,53.89
2018-02-07T19:00:07.477Z,53.54
2018-02-07T19:02:33.449Z,53.47
2018-02-07T19:04:59.407Z,53.58
2018-02-07T19:07:25.340Z,53.96
2018-02-07T19:09:51.287Z,53.91
2018-02-07T19:12:17.232Z,53.81
2018-02-07T19:14:43.174Z,54.38
2018-02-07T19:17:09.149Z,54.59
2018-02-07T19:19:35.120Z,54.13
2018-02-07T19:22:01.081Z,54.08
2018-02-07T19:24:27.037Z,54.41
2018-02-07T19:26:52.979Z,54.61
2018-02-07T19:29:18.927Z,55.01
2018-02-07T19:31:45.193Z,55.42
2018-02-07T19:34:11.151Z,54.70
2018-02-07T19:36:37.121Z,54.86
2018-02-07T19:39:03.092Z,55.03
2018-02-07T19:41:29.023Z,55.04
2018-02-07T19:43:54.971Z,55.48
2018-02-07T19:46:20.923Z,54.78
2018-02-07T19:48:46.877Z,54.74
2018-02-07T19:51:12.830Z,54.77
2018-02-07T19:53:38.795Z,55.07
2018-02-07T19:56:04.748Z,54.86
2018-02-07T19:58:30.743Z,55.58
2018-02-07T20:00:56.790Z,55.78
2018-02-07T20:03:22.755Z,55.60
2018-02-07T20:05:49.399Z,55.72
2018-02-07T20:08:15.355Z,55.89
2018-02-07T20:10:41.287Z,55.72
2018-02-07T20:13:07.270Z,55.56
2018-02-07T20:15:33.227Z,55.57
2018-02-07T20:17:59.210Z,55.78
2018-02-07T20:20:25.150Z,55.87
2018-02-07T20:22:51.101Z,55.73
2018-02-07T20:25:17.044Z,55.98
2018-02-07T20:27:43.679Z,56.37
2018-02-07T20:30:09.611Z,55.96
2018-02-07T20:32:35.555Z,55.80
2018-02-07T20:35:01.500Z,56.96
2018-02-07T20:37:27.475Z,56.46
2018-02-07T20:39:53.424Z,56.43
2018-02-07T20:42:19.357Z,56.64
2018-02-07T20:44:45.307Z,56.52
2018-02-07T20:47:11.308Z,56.02
2018-02-07T20:49:37.254Z,57.09
2018-02-07T20:52:03.190Z,57.21
2018-02-07T20:54:29.118Z,57.84
2018-02-07T20:56:55.067Z,58.12
2018-02-07T20:59:21.023Z,57.93
2018-02-07T21:01:48.794Z,57.99
2018-02-07T21:04:14.745Z,57.66
2018-02-07T21:06:40.698Z,57.40
2018-02-07T21:09:06.642Z,57.96
2018-02-07T21:11:32.591Z,57.09
2018-02-07T21:13:58.539Z,57.80
2018-02-07T21:16:24.460Z,57.08
2018-02-07T21:18:50.442Z,56.20
2018-02-07T21:21:16.360Z,56.62
2018-02-07T21:23:42.294Z,56.40
2018-02-07T21:26:08.242Z,56.05
2018-02-07T21:28:34.182Z,55.95
2018-02-07T21:31:00.108Z,57.20
2018-02-07T21:33:26.056Z,57.42
2018-02-07T21:35:51.984Z,57.34
2018-02-07T21:38:17.912Z,57.57
2018-02-07T21:40:43.836Z,55.67
2018-02-07T21:43:09.771Z,56.58
2018-02-07T21:45:35.702Z,55.93
2018-02-07T21:48:01.634Z,57.06
2018-02-07T21:50:27.566Z,57.42
2018-02-07T21:52:53.488Z,57.65
2018-02-07T21:55:19.414Z,57.39
2018-02-07T21:57:45.338Z,58.21
2018-02-07T22:00:11.258Z,58.55
2018-02-07T22:02:37.185Z,58.19
2018-02-07T22:05:03.110Z,57.98
2018-02-07T22:07:29.054Z,58.84
2018-02-07T22:09:54.989Z,59.19
2018-02-07T22:12:20.938Z,58.94
2018-02-07T22:14:46.872Z,59.78
2018-02-07T22:17:12.805Z,58.08
2018-02-07T22:19:38.734Z,59.48
2018-02-07T22:22:04.660Z,58.78
2018-02-07T22:24:30.604Z,59.03
2018-02-07T22:26:56.528Z,58.48
2018-02-07T22:29:22.474Z,59.01
2018-02-07T22:31:48.406Z,59.16
2018-02-07T22:34:14.331Z,59.01
2018-02-07T22:36:40.254Z,58.56
2018-02-07T22:39:06.166Z,58.99
2018-02-07T22:41:32.098Z,60.25
2018-02-07T22:43:58.030Z,60.54
2018-02-07T22:46:24.118Z,60.82
2018-02-07T22:48:50.075Z,60.54
2018-02-07T22:51:16.032Z,59.48
2018-02-07T22:53:41.952Z,60.08
2018-02-07T22:56:07.876Z,60.15
2018-02-07T22:58:33.806Z,60.81
2018-02-07T23:00:59.748Z,60.26
2018-02-07T23:03:25.678Z,59.32
2018-02-07T23:05:51.726Z,59.22
2018-02-07T23:08:17.646Z,60.22
2018-02-07T23:10:43.584Z,60.41
2018-02-07T23:13:09.510Z,60.67
2018-02-07T23:15:35.430Z,60.10
2018-02-07T23:18:01.355Z,60.29
2018-02-07T23:20:27.274Z,60.83
2018-02-07T23:22:53.204Z,60.59
2018-02-07T23:25:19.130Z,59.43
2018-02-07T23:27:45.092Z,59.46
2018-02-07T23:30:11.038Z,59.63
2018-02-07T23:32:36.981Z,60.08
2018-02-07T23:35:02.910Z,59.94
2018-02-07T23:37:28.867Z,60.52
2018-02-07T23:39:54.790Z,59.99
2018-02-07T23:42:20.718Z,61.00
2018-02-07T23:44:46.644Z,61.38
2018-02-07T23:47:12.584Z,61.38
2018-02-07T23:49:38.524Z,60.85
2018-02-07T23:52:04.460Z,60.32
2018-02-07T23:54:30.376Z,59.57
2018-02-07T23:56:56.298Z,59.58
2018-02-07T23:59:22.223Z,58.88
